HESH 020500Z 01012KT CAVOK 31/18 Q1010 NOSIG
From batch tds/metars/production/2022/10/2/h05_m24_metars.cache.csv.gz
Observed at (about 1 hour ago)
Identifier HESH
HESH 020400Z 36010KT CAVOK 30/19 Q1009 NOSIG
From batch tds/metars/production/2022/10/2/h04_m25_metars.cache.csv.gz
Observed at (about 2 hours ago)
Identifier HESH
HESH 020300Z 36009KT CAVOK 29/18 Q1009 NOSIG
From batch tds/metars/production/2022/10/2/h03_m55_metars.cache.csv.gz
Observed at (about 3 hours ago)
Identifier HESH
HESH 020100Z 01011KT CAVOK 29/18 Q1009 NOSIG
From batch tds/metars/production/2022/10/2/h01_m29_metars.cache.csv.gz
Observed at (about 5 hours ago)
Identifier HESH
HESH 020000Z 36011KT CAVOK 30/18 Q1009 NOSIG
From batch tds/metars/production/2022/10/2/h00_m21_metars.cache.csv.gz
Observed at (about 6 hours ago)
Identifier HESH
HESH 012300Z 36009KT CAVOK 30/19 Q1010 NOSIG
From batch tds/metars/production/2022/10/1/h23_m23_metars.cache.csv.gz
Observed at (about 7 hours ago)
Identifier HESH
HESH 012200Z 02012KT CAVOK 30/19 Q1010 NOSIG
From batch tds/metars/production/2022/10/1/h22_m22_metars.cache.csv.gz
Observed at (about 8 hours ago)
Identifier HESH
HESH 012100Z 01011KT CAVOK 31/19 Q1009 NOSIG
From batch tds/metars/production/2022/10/1/h21_m29_metars.cache.csv.gz
Observed at (about 9 hours ago)
Identifier HESH
HESH 012000Z 02010KT CAVOK 31/20 Q1009 NOSIG
From batch tds/metars/production/2022/10/1/h20_m27_metars.cache.csv.gz
Observed at (about 10 hours ago)
Identifier HESH
HESH 011900Z 36010KT CAVOK 33/17 Q1009 NOSIG
From batch tds/metars/production/2022/10/1/h19_m51_metars.cache.csv.gz
Observed at (about 11 hours ago)
Identifier HESH
HESH 011800Z 01016KT CAVOK 35/14 Q1009 NOSIG
From batch tds/metars/production/2022/10/1/h18_m51_metars.cache.csv.gz
Observed at (about 12 hours ago)
Identifier HESH
HESH 011700Z 36013KT CAVOK 36/13 Q1009 NOSIG
From batch tds/metars/production/2022/10/1/h17_m24_metars.cache.csv.gz
Observed at (about 13 hours ago)
Identifier HESH
HESH 011600Z 01012KT CAVOK 35/13 Q1009 NOSIG
From batch tds/metars/production/2022/10/1/h16_m29_metars.cache.csv.gz
Observed at (about 14 hours ago)
Identifier HESH
HESH 011500Z 36012KT CAVOK 37/13 Q1009 NOSIG
From batch tds/metars/production/2022/10/1/h15_m59_metars.cache.csv.gz
Observed at (about 15 hours ago)
Identifier HESH
HESH 011400Z 02011KT CAVOK 39/12 Q1009 NOSIG
From batch tds/metars/production/2022/10/1/h14_m22_metars.cache.csv.gz
Observed at (about 16 hours ago)
Identifier HESH
HESH 011300Z 01013KT CAVOK 39/12 Q1010 NOSIG
From batch tds/metars/production/2022/10/1/h13_m52_metars.cache.csv.gz
Observed at (about 17 hours ago)
Identifier HESH
HESH 010800Z 02016KT CAVOK 34/17 Q1014 NOSIG
From batch tds/metars/production/2022/10/1/h08_m29_metars.cache.csv.gz
Observed at (about 22 hours ago)
Identifier HESH
HESH 010700Z 01015KT CAVOK 33/18 Q1014 NOSIG
From batch tds/metars/production/2022/10/1/h07_m29_metars.cache.csv.gz
Observed at (about 23 hours ago)
Identifier HESH
HESH 010600Z 01014KT CAVOK 32/19 Q1014 NOSIG
From batch tds/metars/production/2022/10/1/h06_m55_metars.cache.csv.gz
Observed at (1 day ago)
Identifier HESH
HESH 010400Z 36012KT CAVOK 30/20 Q1013 NOSIG
From batch tds/metars/production/2022/10/1/h04_m47_metars.cache.csv.gz
Observed at (1 day ago)
Identifier HESH
HESH 010300Z 01010KT CAVOK 29/20 Q1013 NOSIG
From batch tds/metars/production/2022/10/1/h03_m52_metars.cache.csv.gz
Observed at (1 day ago)
Identifier HESH
HESH 010200Z 01011KT CAVOK 28/20 Q1012 NOSIG
From batch tds/metars/production/2022/10/1/h02_m24_metars.cache.csv.gz
Observed at (1 day ago)
Identifier HESH
HESH 302200Z 01016KT CAVOK 32/16 Q1011 NOSIG
From batch tds/metars/production/2022/9/30/h22_m28_metars.cache.csv.gz
Observed at (1 day ago)
Identifier HESH
HESH 302000Z 02019KT CAVOK 33/16 Q1010 NOSIG
From batch tds/metars/production/2022/9/30/h20_m24_metars.cache.csv.gz
Observed at (1 day ago)
Identifier HESH
HESH 301900Z 01021KT CAVOK 34/16 Q1010 NOSIG
From batch tds/metars/production/2022/9/30/h19_m27_metars.cache.csv.gz
Observed at (1 day ago)
Identifier HESH
HESH 301800Z 01016KT CAVOK 36/14 Q1010 NOSIG
From batch tds/metars/production/2022/9/30/h18_m54_metars.cache.csv.gz
Observed at (1 day ago)
Identifier HESH
HESH 301700Z 35005KT CAVOK 35/16 Q1010 NOSIG
From batch tds/metars/production/2022/9/30/h17_m49_metars.cache.csv.gz
Observed at (1 day ago)
Identifier HESH
HESH 301600Z 35006KT CAVOK 36/13 Q1009 NOSIG
From batch tds/metars/production/2022/9/30/h16_m52_metars.cache.csv.gz
Observed at (1 day ago)
Identifier HESH
HESH 301500Z 36009KT CAVOK 37/12 Q1009 NOSIG
From batch tds/metars/production/2022/9/30/h15_m24_metars.cache.csv.gz
Observed at (1 day ago)
Identifier HESH
HESH 301400Z 36011KT CAVOK 38/13 Q1009 NOSIG
From batch tds/metars/production/2022/9/30/h14_m27_metars.cache.csv.gz
Observed at (1 day ago)
Identifier HESH
HESH 301300Z 01015KT CAVOK 37/14 Q1009 NOSIG
From batch tds/metars/production/2022/9/30/h13_m59_metars.cache.csv.gz
Observed at (1 day ago)
Identifier HESH
HESH 301200Z 01013KT CAVOK 37/14 Q1010 NOSIG
From batch tds/metars/production/2022/9/30/h12_m59_metars.cache.csv.gz
Observed at (2 days ago)
Identifier HESH
HESH 301100Z 01015KT CAVOK 36/16 Q1010 NOSIG
From batch tds/metars/production/2022/9/30/h11_m59_metars.cache.csv.gz
Observed at (2 days ago)
Identifier HESH
HESH 301000Z 01014KT CAVOK 35/17 Q1011 NOSIG
From batch tds/metars/production/2022/9/30/h10_m20_metars.cache.csv.gz
Observed at (2 days ago)
Identifier HESH
HESH 300800Z 01017KT CAVOK 33/18 Q1012 NOSIG
From batch tds/metars/production/2022/9/30/h08_m21_metars.cache.csv.gz
Observed at (2 days ago)
Identifier HESH
HESH 300700Z 01019KT CAVOK 32/19 Q1012 NOSIG
From batch tds/metars/production/2022/9/30/h07_m29_metars.cache.csv.gz
Observed at (2 days ago)
Identifier HESH
HESH 300600Z 01016KT CAVOK 31/20 Q1011 NOSIG
From batch tds/metars/production/2022/9/30/h06_m59_metars.cache.csv.gz
Observed at (2 days ago)
Identifier HESH
HESH 300500Z 01013KT CAVOK 30/19 Q1011 NOSIG
From batch tds/metars/production/2022/9/30/h05_m23_metars.cache.csv.gz
Observed at (2 days ago)
Identifier HESH
HESH 300400Z 36013KT CAVOK 28/19 Q1010 NOSIG
From batch tds/metars/production/2022/9/30/h04_m50_metars.cache.csv.gz
Observed at (2 days ago)
Identifier HESH
HESH 300300Z 36014KT CAVOK 29/19 Q1010 NOSIG
From batch tds/metars/production/2022/9/30/h03_m59_metars.cache.csv.gz
Observed at (2 days ago)
Identifier HESH
HESH 300200Z 01011KT CAVOK 29/18 Q1009 NOSIG
From batch tds/metars/production/2022/9/30/h02_m29_metars.cache.csv.gz
Observed at (2 days ago)
Identifier HESH
HESH 300100Z 36013KT CAVOK 29/19 Q1009 NOSIG
From batch tds/metars/production/2022/9/30/h01_m27_metars.cache.csv.gz
Observed at (2 days ago)
Identifier HESH
HESH 292300Z 36012KT CAVOK 31/18 Q1009
From batch tds/metars/production/2022/9/29/h23_m29_metars.cache.csv.gz
Observed at (2 days ago)
Identifier HESH
HESH 292100Z 01014KT CAVOK 32/18 Q1009 NOSIG
From batch tds/metars/production/2022/9/29/h21_m51_metars.cache.csv.gz
Observed at (2 days ago)
Identifier HESH
HESH 292000Z 36013KT CAVOK 32/18 Q1009 NOSIG
From batch tds/metars/production/2022/9/29/h20_m23_metars.cache.csv.gz
Observed at (2 days ago)
Identifier HESH
HESH 291900Z 36014KT CAVOK 32/17 Q1009 NOSIG
From batch tds/metars/production/2022/9/29/h19_m59_metars.cache.csv.gz
Observed at (2 days ago)
Identifier HESH
HESH 291700Z 36017KT CAVOK 33/16 Q1008 NOSIG
From batch tds/metars/production/2022/9/29/h17_m22_metars.cache.csv.gz
Observed at (3 days ago)
Identifier HESH
HESH 291600Z 36014KT CAVOK 33/17 Q1007 NOSIG
From batch tds/metars/production/2022/9/29/h16_m24_metars.cache.csv.gz
Observed at (3 days ago)
Identifier HESH
HESH 291500Z 01012KT CAVOK 34/16 Q1008 NOSIG
From batch tds/metars/production/2022/9/29/h15_m29_metars.cache.csv.gz
Observed at (3 days ago)
Identifier HESH
HESH 291400Z 01017KT CAVOK 35/16 Q1008 NOSIG
From batch tds/metars/production/2022/9/29/h14_m29_metars.cache.csv.gz
Observed at (3 days ago)
Identifier HESH
talk